Time;durP1;ratioP1;P1;durP2;ratioP2;P2;SDS_P1;SDS_P2;PMS_P1;PMS_P2;Temp;Humidity;BMP_temperature;BMP_pressure;BME280_temperature;BME280_humidity;BME280_pressure;Samples;Min_cycle;Max_cycle;Signal;HPM_P1;HPM_P2
2022/05/03 00:01:56;;;;;;;15.93;6.20;;;8.20;99.90;;;;;;5105616;27;21449;-69
2022/05/03 00:04:40;;;;;;;10.33;5.83;;;8.20;99.90;;;;;;5113636;27;20498;-69
2022/05/03 00:07:20;;;;;;;10.10;6.10;;;8.20;99.90;;;;;;5108713;27;20483;-69
2022/05/03 00:10:06;;;;;;;11.70;6.20;;;8.20;99.90;;;;;;5099917;27;20445;-69
2022/05/03 00:13:02;;;;;;;12.67;6.50;;;8.20;99.90;;;;;;5105676;27;20440;-69
2022/05/03 00:15:31;;;;;;;10.30;5.70;;;8.10;99.90;;;;;;5077604;28;20528;-69
2022/05/03 00:17:58;;;;;;;7.63;5.07;;;8.10;99.90;;;;;;5108542;27;20434;-69
2022/05/03 00:20:25;;;;;;;11.00;5.37;;;8.00;99.90;;;;;;5102313;27;20524;-68
2022/05/03 00:22:51;;;;;;;10.53;5.93;;;8.00;99.90;;;;;;5105334;27;20481;-68
2022/05/03 00:25:17;;;;;;;10.20;5.60;;;7.90;99.90;;;;;;5108931;27;21139;-69
2022/05/03 00:27:43;;;;;;;11.73;5.73;;;7.90;99.90;;;;;;5107524;27;20467;-68
2022/05/03 00:30:09;;;;;;;10.77;6.03;;;7.90;99.90;;;;;;5106868;27;20187;-69
2022/05/03 00:32:37;;;;;;;8.13;5.07;;;7.80;99.90;;;;;;5112529;27;20184;-68
2022/05/03 00:35:03;;;;;;;14.20;6.80;;;7.70;99.90;;;;;;5108632;27;20600;-67
2022/05/03 00:37:28;;;;;;;9.40;5.40;;;7.70;99.90;;;;;;5106955;27;20992;-69
2022/05/03 00:39:54;;;;;;;11.60;5.30;;;7.70;99.90;;;;;;5107618;27;20464;-68
2022/05/03 00:42:27;;;;;;;14.83;6.50;;;7.70;99.90;;;;;;5108780;27;20237;-70
2022/05/03 00:45:02;;;;;;;8.03;5.57;;;7.70;99.90;;;;;;5112167;27;20289;-69
2022/05/03 00:47:42;;;;;;;7.90;5.40;;;7.70;99.90;;;;;;5108761;27;20488;-68
2022/05/03 00:50:38;;;;;;;13.50;6.93;;;7.70;99.90;;;;;;5105531;27;20845;-69
2022/05/03 00:53:16;;;;;;;11.47;6.20;;;7.70;99.90;;;;;;5089808;27;20445;-68
2022/05/03 00:55:51;;;;;;;11.73;6.50;;;7.70;99.90;;;;;;5104151;27;20434;-66
2022/05/03 00:58:37;;;;;;;7.83;4.83;;;7.60;99.90;;;;;;5106147;27;20878;-69
2022/05/03 01:01:05;;;;;;;10.80;6.07;;;7.60;99.90;;;;;;5105546;27;20476;-67
2022/05/03 01:03:40;;;;;;;13.40;5.87;;;7.60;99.90;;;;;;5108810;27;20425;-66
2022/05/03 01:06:30;;;;;;;9.27;4.73;;;7.60;99.90;;;;;;5105289;27;20482;-66
2022/05/03 01:09:02;;;;;;;6.97;4.70;;;7.60;99.90;;;;;;5102602;27;20514;-66
2022/05/03 01:12:01;;;;;;;17.70;5.63;;;7.60;99.90;;;;;;5102255;27;20544;-63
2022/05/03 01:14:27;;;;;;;9.77;5.67;;;7.50;99.90;;;;;;5108323;27;20452;-67
2022/05/03 01:17:02;;;;;;;10.23;5.50;;;7.50;99.90;;;;;;5110731;27;20433;-67
2022/05/03 01:19:34;;;;;;;9.03;5.67;;;7.50;99.90;;;;;;5108829;27;20179;-67
2022/05/03 01:22:32;;;;;;;10.67;5.23;;;7.50;99.90;;;;;;5086880;28;20524;-67
2022/05/03 01:25:18;;;;;;;12.40;5.73;;;7.40;99.90;;;;;;5093427;27;20461;-69
2022/05/03 01:27:50;;;;;;;10.17;5.17;;;7.40;99.90;;;;;;5111422;27;20461;-66
2022/05/03 01:30:16;;;;;;;10.73;5.90;;;7.40;99.90;;;;;;5108895;27;20465;-67
2022/05/03 01:32:44;;;;;;;10.57;6.20;;;7.40;99.90;;;;;;5115264;27;20865;-66
2022/05/03 01:35:12;;;;;;;12.23;6.60;;;7.40;99.90;;;;;;5110592;27;20441;-68
2022/05/03 01:38:00;;;;;;;14.50;7.13;;;7.30;99.90;;;;;;5103360;27;20860;-68
2022/05/03 01:40:37;;;;;;;19.93;6.20;;;7.30;99.90;;;;;;5108230;27;20441;-68
2022/05/03 01:43:25;;;;;;;12.37;7.57;;;7.20;99.90;;;;;;5110577;27;20452;-68
2022/05/03 01:46:11;;;;;;;15.37;7.27;;;7.20;99.90;;;;;;5109080;27;21011;-69
2022/05/03 01:51:52;;;;;;;12.33;6.30;;;7.10;99.90;;;;;;5106877;27;20452;-67
2022/05/03 01:54:36;;;;;;;13.17;7.87;;;7.10;99.90;;;;;;5107281;27;20549;-67
2022/05/03 01:57:31;;;;;;;10.20;5.80;;;7.10;99.90;;;;;;5108429;27;20520;-67
2022/05/03 02:00:10;;;;;;;15.00;7.00;;;7.00;99.90;;;;;;5016298;28;20453;-68
2022/05/03 02:03:16;;;;;;;9.60;5.73;;;7.00;99.90;;;;;;5104917;27;20436;-66
2022/05/03 02:06:01;;;;;;;9.83;5.60;;;7.00;99.90;;;;;;5100328;28;20465;-67
2022/05/03 02:09:04;;;;;;;10.17;6.10;;;7.00;99.90;;;;;;5103553;28;20503;-67
2022/05/03 02:11:58;;;;;;;13.50;6.73;;;7.00;99.90;;;;;;5107580;28;20436;-68
2022/05/03 02:14:45;;;;;;;15.00;6.70;;;7.00;99.90;;;;;;5108999;28;20452;-67
2022/05/03 02:17:31;;;;;;;13.33;7.50;;;7.00;99.90;;;;;;5101135;28;20526;-67
2022/05/03 02:20:30;;;;;;;11.03;5.97;;;7.00;99.90;;;;;;5101642;28;20438;-69
2022/05/03 02:23:07;;;;;;;12.83;7.70;;;6.90;99.90;;;;;;5103831;28;20469;-67
2022/05/03 02:25:50;;;;;;;9.97;6.10;;;6.90;99.90;;;;;;5105774;28;20464;-65
2022/05/03 02:28:40;;;;;;;11.73;5.93;;;6.80;99.90;;;;;;5102860;28;20432;-67
2022/05/03 02:31:12;;;;;;;11.13;6.67;;;6.90;99.90;;;;;;5112127;28;20440;-67
2022/05/03 02:33:54;;;;;;;16.10;6.57;;;6.90;99.90;;;;;;5104086;28;20468;-65
2022/05/03 02:36:24;;;;;;;11.43;6.70;;;6.80;99.90;;;;;;5106244;28;20441;-67
2022/05/03 02:39:03;;;;;;;15.87;6.80;;;6.90;99.90;;;;;;5102738;28;20847;-66
2022/05/03 02:41:38;;;;;;;9.90;5.73;;;6.90;99.90;;;;;;5106299;28;20428;-67
2022/05/03 02:44:04;;;;;;;12.07;7.17;;;6.80;99.90;;;;;;5100988;28;20587;-67
2022/05/03 02:46:55;;;;;;;9.70;6.07;;;6.80;99.90;;;;;;5086169;28;20464;-64
2022/05/03 02:49:47;;;;;;;10.67;6.70;;;6.80;99.90;;;;;;5104035;28;20429;-67
2022/05/03 02:52:40;;;;;;;9.63;5.70;;;6.80;99.90;;;;;;5082307;28;20847;-67
2022/05/03 02:55:45;;;;;;;17.33;7.23;;;6.70;99.90;;;;;;5082707;28;20965;-66
2022/05/03 02:58:33;;;;;;;11.63;6.17;;;6.70;99.90;;;;;;5098706;28;20495;-66
2022/05/03 03:01:56;;;;;;;10.00;6.13;;;6.70;99.90;;;;;;5105489;28;20519;-68
2022/05/03 03:04:32;;;;;;;12.13;6.90;;;6.60;99.90;;;;;;5045065;28;20566;-67
2022/05/03 03:06:59;;;;;;;12.60;7.03;;;6.60;99.90;;;;;;5094507;28;20467;-67
2022/05/03 03:09:52;;;;;;;14.03;6.73;;;6.60;99.90;;;;;;5103273;28;21213;-67
2022/05/03 03:12:30;;;;;;;12.97;6.30;;;6.60;99.90;;;;;;5102236;28;20487;-68
2022/05/03 03:15:08;;;;;;;13.50;6.63;;;6.50;99.90;;;;;;5100273;28;20541;-69
2022/05/03 03:17:38;;;;;;;10.87;5.93;;;6.50;99.90;;;;;;5106311;28;20425;-68
2022/05/03 03:20:06;;;;;;;15.97;6.70;;;6.50;99.90;;;;;;5115559;28;20468;-68
2022/05/03 03:22:41;;;;;;;13.37;6.30;;;6.50;99.90;;;;;;5114842;28;21008;-68
2022/05/03 03:25:09;;;;;;;15.20;7.03;;;6.50;99.90;;;;;;5120085;27;20436;-68
2022/05/03 03:27:36;;;;;;;13.10;6.87;;;6.50;99.90;;;;;;5113823;27;20460;-68
2022/05/03 03:30:05;;;;;;;25.67;6.60;;;6.40;99.90;;;;;;5128904;27;20500;-68
2022/05/03 03:32:31;;;;;;;15.40;6.10;;;6.40;99.90;;;;;;5127759;27;20431;-68
2022/05/03 03:34:59;;;;;;;14.80;7.27;;;6.40;99.90;;;;;;5126653;27;20437;-69
2022/05/03 03:37:30;;;;;;;10.10;5.83;;;6.40;99.90;;;;;;5112957;27;20524;-68
2022/05/03 03:39:57;;;;;;;12.47;6.53;;;6.40;99.90;;;;;;5127269;27;20420;-68
2022/05/03 03:42:23;;;;;;;11.30;6.90;;;6.30;99.90;;;;;;5124871;27;20815;-67
2022/05/03 03:44:49;;;;;;;14.67;6.40;;;6.30;99.90;;;;;;5126816;27;20445;-66
2022/05/03 03:47:15;;;;;;;8.90;5.93;;;6.30;99.90;;;;;;5116919;27;20487;-67
2022/05/03 03:49:42;;;;;;;15.27;7.50;;;6.20;99.90;;;;;;5111324;27;20412;-67
2022/05/03 03:52:08;;;;;;;17.50;6.97;;;6.20;99.90;;;;;;5086145;27;20445;-66
2022/05/03 03:54:35;;;;;;;11.43;5.23;;;6.20;99.90;;;;;;5118809;27;20483;-67
2022/05/03 03:57:04;;;;;;;10.63;6.77;;;6.20;99.90;;;;;;5120039;27;21007;-68
2022/05/03 03:59:31;;;;;;;14.63;6.73;;;6.10;99.90;;;;;;5118215;27;20436;-68
2022/05/03 04:01:58;;;;;;;13.70;7.00;;;6.10;99.90;;;;;;5094231;27;20425;-68
2022/05/03 04:04:28;;;;;;;11.30;5.80;;;6.10;99.90;;;;;;5116936;27;20441;-68
2022/05/03 04:06:54;;;;;;;10.17;6.67;;;6.10;99.90;;;;;;5113214;27;20575;-65
2022/05/03 04:09:19;;;;;;;10.40;6.63;;;6.00;99.90;;;;;;5117602;27;20513;-65
2022/05/03 04:11:46;;;;;;;13.47;6.30;;;6.00;99.90;;;;;;5122586;27;20309;-66
2022/05/03 04:14:13;;;;;;;11.53;6.23;;;6.00;99.90;;;;;;5124163;27;20286;-66
2022/05/03 04:16:39;;;;;;;11.80;6.73;;;6.10;99.90;;;;;;5114555;27;20422;-67
2022/05/03 04:19:04;;;;;;;13.07;7.73;;;6.00;99.90;;;;;;5116784;27;20421;-66
2022/05/03 04:21:30;;;;;;;21.37;6.17;;;6.00;99.90;;;;;;5124391;27;20179;-65
2022/05/03 04:23:56;;;;;;;12.57;6.70;;;6.00;99.90;;;;;;5123353;27;20206;-67
2022/05/03 04:26:21;;;;;;;15.13;7.77;;;6.00;99.90;;;;;;5118715;27;20235;-68
2022/05/03 04:28:47;;;;;;;11.73;7.10;;;6.10;99.90;;;;;;5118444;27;20171;-66
2022/05/03 04:31:13;;;;;;;27.93;7.70;;;6.10;99.90;;;;;;5113604;27;20183;-68
2022/05/03 04:33:38;;;;;;;19.47;9.13;;;6.10;99.90;;;;;;5117747;27;20195;-67
2022/05/03 04:36:04;;;;;;;17.73;8.43;;;6.10;99.90;;;;;;5101265;27;20720;-67
2022/05/03 04:38:30;;;;;;;16.50;7.30;;;6.10;99.90;;;;;;5118468;27;20249;-67
2022/05/03 04:41:03;;;;;;;13.60;7.33;;;6.20;99.90;;;;;;5125763;27;20484;-67
2022/05/03 04:43:28;;;;;;;14.10;7.67;;;6.20;99.90;;;;;;5126700;27;20175;-67
2022/05/03 04:45:54;;;;;;;12.40;7.50;;;6.30;99.90;;;;;;5117300;27;20919;-67
2022/05/03 04:48:20;;;;;;;13.17;7.90;;;6.30;99.90;;;;;;5126364;27;20183;-68
2022/05/03 04:50:47;;;;;;;18.10;8.83;;;6.30;99.90;;;;;;5124661;27;21242;-68
2022/05/03 04:53:14;;;;;;;11.33;7.10;;;6.40;99.90;;;;;;5118426;27;20598;-68
2022/05/03 04:55:40;;;;;;;17.53;9.23;;;6.40;99.90;;;;;;5117394;27;20448;-69
2022/05/03 04:58:06;;;;;;;19.93;7.93;;;6.50;99.90;;;;;;5116949;27;20523;-68
2022/05/03 05:00:32;;;;;;;13.37;8.43;;;6.60;99.90;;;;;;5124204;27;20420;-68
2022/05/03 05:02:58;;;;;;;14.43;8.90;;;6.70;99.90;;;;;;5119968;27;20429;-68
2022/05/03 05:05:23;;;;;;;13.40;7.90;;;6.80;99.90;;;;;;5115372;27;20643;-68
2022/05/03 05:07:49;;;;;;;15.43;7.90;;;6.90;99.90;;;;;;5115990;27;20209;-68
2022/05/03 05:10:24;;;;;;;14.83;7.60;;;7.00;99.90;;;;;;5119152;27;20251;-68
2022/05/03 05:12:50;;;;;;;13.90;8.07;;;7.10;99.90;;;;;;5112422;27;20594;-75
2022/05/03 05:15:16;;;;;;;15.20;8.70;;;7.10;99.90;;;;;;5121367;27;20440;-68
2022/05/03 05:17:42;;;;;;;12.40;7.30;;;7.20;99.90;;;;;;5106349;27;20539;-66
2022/05/03 05:20:08;;;;;;;12.13;7.47;;;7.40;99.90;;;;;;5112335;27;20421;-68
2022/05/03 05:22:34;;;;;;;11.33;8.57;;;7.40;99.90;;;;;;5109063;27;20191;-68
2022/05/03 05:24:59;;;;;;;16.03;7.93;;;7.50;99.90;;;;;;5113251;27;20441;-68
2022/05/03 05:27:25;;;;;;;14.50;8.70;;;7.60;99.90;;;;;;5114621;27;20222;-67
2022/05/03 05:29:51;;;;;;;11.07;7.00;;;7.70;99.90;;;;;;5112901;27;20178;-67
2022/05/03 05:32:16;;;;;;;15.27;8.33;;;7.80;99.90;;;;;;5112144;27;20192;-68
2022/05/03 05:34:42;;;;;;;16.37;9.23;;;7.90;99.90;;;;;;5105603;27;20203;-67
2022/05/03 05:37:08;;;;;;;14.80;8.70;;;8.00;99.90;;;;;;5110563;27;20190;-68
2022/05/03 05:39:33;;;;;;;16.50;8.90;;;8.10;99.90;;;;;;5105671;27;20176;-67
2022/05/03 05:42:01;;;;;;;15.97;9.40;;;8.20;99.90;;;;;;5105716;27;20353;-66
2022/05/03 05:44:30;;;;;;;16.27;8.70;;;8.40;99.90;;;;;;5109890;27;20523;-68
2022/05/03 05:46:56;;;;;;;15.83;9.70;;;8.50;99.90;;;;;;5114313;27;20458;-67
2022/05/03 05:49:22;;;;;;;17.33;9.90;;;8.60;99.90;;;;;;5114051;27;20424;-68
2022/05/03 05:51:48;;;;;;;16.33;8.70;;;8.70;99.90;;;;;;5113834;27;20195;-67
2022/05/03 05:54:16;;;;;;;15.60;8.70;;;8.80;99.90;;;;;;5114361;27;20259;-68
2022/05/03 05:56:42;;;;;;;16.10;8.57;;;8.90;99.90;;;;;;5109234;27;20349;-68
2022/05/03 05:59:07;;;;;;;26.70;8.70;;;9.10;99.90;;;;;;5117742;27;20420;-68
2022/05/03 06:01:38;;;;;;;15.50;8.70;;;9.20;99.90;;;;;;5117395;27;20579;-68
2022/05/03 06:04:04;;;;;;;17.23;8.43;;;9.30;99.90;;;;;;5117826;27;20634;-68
2022/05/03 06:06:32;;;;;;;14.33;7.63;;;9.50;99.90;;;;;;5115813;27;20846;-68
2022/05/03 06:09:02;;;;;;;19.03;9.00;;;9.60;99.90;;;;;;5108149;28;20503;-68
2022/05/03 06:11:29;;;;;;;18.97;7.97;;;9.70;99.90;;;;;;5109016;28;20428;-67
2022/05/03 06:13:55;;;;;;;11.63;7.80;;;9.80;99.90;;;;;;5111823;28;21013;-69
2022/05/03 06:16:20;;;;;;;18.27;8.40;;;10.00;99.90;;;;;;5114260;28;20427;-69
2022/05/03 06:18:46;;;;;;;17.07;8.10;;;10.10;99.90;;;;;;5115661;28;20481;-68
2022/05/03 06:21:12;;;;;;;20.40;7.83;;;10.30;99.90;;;;;;5117648;28;20271;-68
2022/05/03 06:23:38;;;;;;;13.53;7.60;;;10.40;99.90;;;;;;5106716;28;20241;-66
2022/05/03 06:26:05;;;;;;;15.67;8.67;;;10.50;99.90;;;;;;5109555;28;20247;-68
2022/05/03 06:28:32;;;;;;;12.80;8.40;;;10.60;99.90;;;;;;5108384;28;20199;-67
2022/05/03 06:30:57;;;;;;;11.50;6.97;;;10.70;99.90;;;;;;5113017;28;20409;-68
2022/05/03 06:33:23;;;;;;;13.63;8.53;;;10.80;99.90;;;;;;5117178;28;20922;-67
2022/05/03 06:35:48;;;;;;;12.37;7.67;;;10.90;99.90;;;;;;5108360;28;20705;-67
2022/05/03 06:38:14;;;;;;;12.57;8.07;;;11.00;99.90;;;;;;5107709;28;20199;-67
2022/05/03 06:40:41;;;;;;;10.43;6.97;;;11.10;99.90;;;;;;5112575;28;20180;-67
2022/05/03 06:43:07;;;;;;;15.50;8.30;;;11.20;99.90;;;;;;5087835;28;20649;-67
2022/05/03 06:45:33;;;;;;;12.17;7.50;;;11.30;99.90;;;;;;5110141;28;21346;-67
2022/05/03 06:48:00;;;;;;;11.00;7.37;;;11.40;99.90;;;;;;5107033;28;20580;-67
2022/05/03 06:50:26;;;;;;;12.33;6.90;;;11.60;99.90;;;;;;5111610;28;20935;-69
2022/05/03 06:52:52;;;;;;;12.87;7.10;;;11.80;99.90;;;;;;5105032;28;20414;-67
2022/05/03 06:55:18;;;;;;;13.23;7.50;;;11.90;99.90;;;;;;5099334;28;20457;-68
2022/05/03 06:57:44;;;;;;;13.57;7.10;;;12.10;99.90;;;;;;5112270;27;20190;-68
2022/05/03 07:00:10;;;;;;;12.60;7.03;;;12.20;99.90;;;;;;5111535;27;20188;-67
2022/05/03 07:02:36;;;;;;;11.00;7.30;;;12.40;99.90;;;;;;5111733;27;20431;-68
2022/05/03 07:05:04;;;;;;;13.70;7.63;;;12.70;99.90;;;;;;5113411;27;21137;-67
2022/05/03 07:07:30;;;;;;;14.57;8.03;;;12.70;99.90;;;;;;5108586;27;20491;-68
2022/05/03 07:09:56;;;;;;;14.57;7.07;;;12.90;99.90;;;;;;5108849;27;20493;-68
2022/05/03 07:12:22;;;;;;;12.90;6.83;;;13.00;99.90;;;;;;5109899;27;20502;-68
2022/05/03 07:14:48;;;;;;;13.70;7.23;;;13.20;99.90;;;;;;5107968;27;20980;-68
2022/05/03 07:22:45;;;;;;;15.97;7.67;;;13.30;99.90;;;;;;5103529;27;20330;-67
2022/05/03 07:22:46;;;;;;;12.83;6.90;;;13.50;99.90;;;;;;5107266;27;20433;-68
2022/05/03 07:25:16;;;;;;;14.50;7.57;;;13.80;99.90;;;;;;5114782;27;20462;-69
2022/05/03 07:27:48;;;;;;;11.47;6.30;;;13.90;99.90;;;;;;5107208;27;20994;-68
2022/05/03 07:30:15;;;;;;;10.57;7.17;;;14.10;99.90;;;;;;5079293;27;20426;-68
2022/05/03 07:32:45;;;;;;;15.90;8.30;;;14.20;99.90;;;;;;5109208;27;20473;-66
2022/05/03 07:35:12;;;;;;;13.30;7.17;;;14.30;99.90;;;;;;5105501;27;20453;-69
2022/05/03 07:37:38;;;;;;;29.83;7.93;;;14.40;99.90;;;;;;5112998;27;20426;-68
2022/05/03 07:40:06;;;;;;;9.63;5.70;;;14.40;99.90;;;;;;5116307;27;20987;-68
2022/05/03 07:42:32;;;;;;;17.43;6.10;;;14.50;99.90;;;;;;5117023;27;20989;-68
2022/05/03 07:44:57;;;;;;;10.23;6.60;;;14.60;99.90;;;;;;5120005;27;20509;-69
2022/05/03 07:47:23;;;;;;;16.23;7.30;;;14.70;99.90;;;;;;5120507;27;20206;-70
2022/05/03 07:49:48;;;;;;;11.23;7.00;;;14.70;99.80;;;;;;5121295;27;20304;-68
2022/05/03 07:52:14;;;;;;;14.47;5.50;;;14.80;99.90;;;;;;5119453;27;20195;-69
2022/05/03 07:54:41;;;;;;;10.60;6.27;;;14.80;99.90;;;;;;5120074;27;20238;-67
2022/05/03 07:57:07;;;;;;;12.83;6.53;;;14.90;99.80;;;;;;5116633;27;20258;-69
2022/05/03 07:59:33;;;;;;;10.33;5.97;;;14.90;99.90;;;;;;5118773;27;20424;-69
2022/05/03 08:01:59;;;;;;;8.50;5.67;;;15.10;99.90;;;;;;5098440;27;20430;-69
2022/05/03 08:04:25;;;;;;;9.13;5.30;;;15.10;99.60;;;;;;5090665;28;20200;-68
2022/05/03 08:06:51;;;;;;;10.17;6.03;;;15.10;99.90;;;;;;5126446;27;20289;-68
2022/05/03 08:09:17;;;;;;;10.97;4.80;;;15.20;99.90;;;;;;5122644;27;21044;-68
2022/05/03 08:11:43;;;;;;;11.50;6.17;;;15.40;98.90;;;;;;5113795;27;20195;-69
2022/05/03 08:14:09;;;;;;;12.60;6.43;;;15.30;99.10;;;;;;5109053;27;20203;-69
2022/05/03 08:16:35;;;;;;;9.30;5.10;;;15.30;99.50;;;;;;5114175;27;20550;-68
2022/05/03 08:19:01;;;;;;;10.10;5.60;;;15.50;99.10;;;;;;5107611;27;20432;-67
2022/05/03 08:21:27;;;;;;;8.83;5.23;;;15.70;98.60;;;;;;5109387;27;20422;-66
2022/05/03 08:23:54;;;;;;;10.43;5.70;;;15.90;97.80;;;;;;5089346;28;20305;-67
2022/05/03 08:26:20;;;;;;;9.60;4.40;;;15.90;98.20;;;;;;5090586;27;20418;-69
2022/05/03 08:28:46;;;;;;;7.00;4.63;;;16.10;97.50;;;;;;5110096;27;20421;-69
2022/05/03 08:31:11;;;;;;;8.57;4.07;;;16.10;97.30;;;;;;5111755;27;21167;-68
2022/05/03 08:33:37;;;;;;;9.40;4.73;;;16.20;97.00;;;;;;5112714;27;20549;-70
2022/05/03 08:36:04;;;;;;;9.27;3.87;;;16.70;95.50;;;;;;5109764;27;20179;-69
2022/05/03 08:44:00;;;;;;;8.10;4.17;;;17.60;95.50;;;;;;5090638;28;20441;-69
2022/05/03 08:46:26;;;;;;;6.17;3.97;;;18.20;93.40;;;;;;5118649;27;20484;-66
2022/05/03 08:49:04;;;;;;;8.00;4.13;;;18.80;92.10;;;;;;5121812;27;20899;-69
2022/05/03 08:51:32;;;;;;;9.50;4.47;;;18.80;91.90;;;;;;5117109;27;20437;-69
2022/05/03 08:54:02;;;;;;;9.33;4.30;;;18.80;91.70;;;;;;5119288;27;20436;-68
2022/05/03 08:56:30;;;;;;;7.20;3.90;;;19.00;91.60;;;;;;5111087;27;20486;-68
2022/05/03 08:58:56;;;;;;;7.67;4.20;;;19.70;90.80;;;;;;5110022;27;20425;-68
2022/05/03 09:01:21;;;;;;;6.93;4.20;;;20.10;90.90;;;;;;5108227;27;20428;-67
2022/05/03 09:03:47;;;;;;;7.40;4.03;;;20.40;90.50;;;;;;5109612;27;20298;-67
2022/05/03 09:06:13;;;;;;;12.23;4.07;;;20.50;88.40;;;;;;5109988;27;20632;-66
2022/05/03 09:08:39;;;;;;;7.20;4.17;;;19.90;89.50;;;;;;5119013;27;20183;-67
2022/05/03 09:11:15;;;;;;;6.07;3.80;;;19.50;90.20;;;;;;5120579;27;20519;-67
2022/05/03 09:13:43;;;;;;;5.50;3.07;;;19.50;90.00;;;;;;5116369;27;20531;-65
2022/05/03 09:16:17;;;;;;;6.40;3.53;;;19.40;90.00;;;;;;5118386;27;20424;-66
2022/05/03 09:18:45;;;;;;;6.10;3.97;;;19.60;91.20;;;;;;5106915;27;20480;-67
2022/05/03 09:24:06;;;;;;;3.40;2.13;;;20.10;87.90;;;;;;5109636;27;20471;-67
2022/05/03 09:26:32;;;;;;;4.40;2.00;;;20.60;82.70;;;;;;5111860;27;20892;-67
2022/05/03 09:29:02;;;;;;;3.47;2.10;;;20.60;81.70;;;;;;5112000;27;20412;-67
2022/05/03 09:31:41;;;;;;;5.90;2.00;;;20.90;80.80;;;;;;5118642;27;20420;-67
2022/05/03 09:34:19;;;;;;;4.50;2.33;;;21.60;77.90;;;;;;5118033;27;20874;-67
2022/05/03 09:36:53;;;;;;;10.13;3.00;;;20.70;77.60;;;;;;5105039;27;21024;-67
2022/05/03 09:39:30;;;;;;;4.63;2.17;;;20.70;79.00;;;;;;5128144;27;20440;-68
2022/05/03 09:42:12;;;;;;;2.80;1.70;;;20.90;77.60;;;;;;5117609;27;20418;-69
2022/05/03 09:44:58;;;;;;;2.40;1.47;;;21.50;74.80;;;;;;5121843;27;20832;-68
2022/05/03 09:47:33;;;;;;;3.67;1.80;;;21.60;75.60;;;;;;5119535;27;20194;-67
2022/05/03 09:49:59;;;;;;;3.83;1.80;;;21.40;73.80;;;;;;5117209;27;20433;-69
2022/05/03 09:52:30;;;;;;;4.60;2.07;;;21.50;71.10;;;;;;5118515;27;20194;-67
2022/05/03 09:55:03;;;;;;;2.87;1.70;;;21.80;69.90;;;;;;5127138;27;20198;-69
2022/05/03 09:57:31;;;;;;;3.77;2.20;;;21.80;71.30;;;;;;5124724;27;20226;-65
2022/05/03 09:59:57;;;;;;;4.10;1.73;;;22.20;70.80;;;;;;5120425;27;20755;-66
2022/05/03 10:02:25;;;;;;;4.93;2.00;;;21.80;71.00;;;;;;5107224;27;20186;-66
2022/05/03 10:04:53;;;;;;;4.07;2.20;;;21.90;69.40;;;;;;5114199;28;20226;-66
2022/05/03 10:07:20;;;;;;;4.60;1.77;;;22.00;67.70;;;;;;5110232;27;20524;-66
2022/05/03 10:09:47;;;;;;;7.63;1.73;;;21.10;71.00;;;;;;5114544;27;20475;-68
2022/05/03 10:12:14;;;;;;;3.20;1.60;;;20.90;72.90;;;;;;5104627;28;20493;-68
2022/05/03 10:14:41;;;;;;;3.50;1.53;;;20.70;73.70;;;;;;5106799;28;20444;-69
2022/05/03 10:23:01;;;;;;;3.27;2.27;;;21.20;72.70;;;;;;5015877;28;20429;-68
2022/05/03 10:25:29;;;;;;;3.20;1.60;;;21.10;72.60;;;;;;5092193;28;21188;-68
2022/05/03 10:27:57;;;;;;;7.27;2.57;;;20.90;71.20;;;;;;5116449;28;20298;-68
2022/05/03 10:30:26;;;;;;;3.63;2.00;;;21.00;71.80;;;;;;5109879;28;20426;-68
2022/05/03 10:33:20;;;;;;;3.20;1.70;;;21.10;73.70;;;;;;5095356;27;20507;-68
2022/05/03 10:35:47;;;;;;;7.63;1.60;;;21.30;71.80;;;;;;5121105;27;20499;-68
2022/05/03 10:38:13;;;;;;;3.13;1.60;;;21.30;72.90;;;;;;5123805;27;20428;-68
2022/05/03 10:40:44;;;;;;;3.03;1.27;;;21.40;71.30;;;;;;5121524;27;21328;-68
2022/05/03 10:43:12;;;;;;;2.80;1.87;;;21.10;74.30;;;;;;5121798;27;20428;-69
2022/05/03 10:45:49;;;;;;;3.27;2.07;;;21.10;73.20;;;;;;5120181;27;20489;-68
2022/05/03 10:48:29;;;;;;;3.60;2.10;;;21.30;69.90;;;;;;5119660;27;20457;-68
2022/05/03 10:51:05;;;;;;;3.10;1.90;;;21.00;72.50;;;;;;5113244;27;20460;-68
2022/05/03 10:53:33;;;;;;;3.00;1.77;;;20.90;71.50;;;;;;5110282;27;20534;-68
2022/05/03 10:56:12;;;;;;;4.67;2.20;;;20.90;72.40;;;;;;5110974;27;20476;-68
2022/05/03 10:58:46;;;;;;;3.93;1.93;;;20.80;73.40;;;;;;5109022;27;20417;-68
2022/05/03 11:01:22;;;;;;;3.00;1.90;;;21.30;71.00;;;;;;5111101;27;20436;-68
2022/05/03 11:03:47;;;;;;;4.53;2.20;;;21.60;70.30;;;;;;5110596;27;20498;-68
2022/05/03 11:06:19;;;;;;;6.53;2.20;;;21.50;72.20;;;;;;5112917;27;20836;-67
2022/05/03 11:09:08;;;;;;;4.10;1.80;;;21.50;69.60;;;;;;5113322;27;20172;-68
2022/05/03 11:11:43;;;;;;;3.00;1.80;;;21.50;69.40;;;;;;5115102;27;20450;-68
2022/05/03 11:14:12;;;;;;;5.43;2.30;;;22.10;68.60;;;;;;5124503;27;20439;-69
2022/05/03 11:16:37;;;;;;;4.40;1.80;;;21.70;68.80;;;;;;5124777;27;20448;-69
2022/05/03 11:19:10;;;;;;;4.37;1.90;;;22.10;67.50;;;;;;5123106;27;20512;-69
2022/05/03 11:21:36;;;;;;;4.17;2.20;;;21.50;67.70;;;;;;5127680;27;20190;-69
2022/05/03 11:24:02;;;;;;;5.53;1.70;;;21.30;68.70;;;;;;5125815;27;20437;-69
2022/05/03 11:26:28;;;;;;;3.20;1.73;;;21.20;70.40;;;;;;5126467;27;20175;-69
2022/05/03 11:28:57;;;;;;;4.53;1.63;;;21.20;68.20;;;;;;5125708;27;20421;-68
2022/05/03 11:31:26;;;;;;;3.23;2.10;;;20.90;69.30;;;;;;5128661;27;20243;-70
2022/05/03 11:33:58;;;;;;;4.27;1.90;;;20.60;69.40;;;;;;5121889;27;20502;-70
2022/05/03 11:36:25;;;;;;;3.47;2.07;;;20.30;71.30;;;;;;5118302;27;20405;-68
2022/05/03 11:38:53;;;;;;;3.63;2.53;;;20.20;69.80;;;;;;5113994;27;20418;-69
2022/05/03 11:41:26;;;;;;;3.87;1.93;;;20.00;71.40;;;;;;5114641;27;20466;-68
2022/05/03 11:43:53;;;;;;;5.00;2.23;;;19.80;69.30;;;;;;5109376;27;20501;-68
2022/05/03 11:46:21;;;;;;;3.10;2.00;;;19.80;70.70;;;;;;5111209;27;20437;-67
2022/05/03 11:48:59;;;;;;;4.20;1.93;;;19.80;71.30;;;;;;5112862;27;20874;-68
2022/05/03 11:57:33;;;;;;;3.40;1.90;;;19.60;74.30;;;;;;5108740;27;20424;-69
2022/05/03 12:00:02;;;;;;;3.97;2.20;;;19.60;73.20;;;;;;5116498;27;20806;-68
2022/05/03 12:02:41;;;;;;;5.57;2.00;;;19.70;72.30;;;;;;5112009;27;20461;-69
2022/05/03 12:05:16;;;;;;;3.13;1.77;;;20.10;71.00;;;;;;5116198;27;20456;-69
2022/05/03 12:07:42;;;;;;;5.60;1.40;;;19.90;71.60;;;;;;5112149;27;20475;-69
2022/05/03 12:10:27;;;;;;;4.50;2.53;;;19.80;70.60;;;;;;5123237;27;20430;-69
2022/05/03 12:13:23;;;;;;;4.90;2.27;;;20.10;70.70;;;;;;5104879;28;20517;-69
2022/05/03 12:15:56;;;;;;;2.53;1.70;;;20.20;71.20;;;;;;5110657;27;20441;-68
2022/05/03 12:18:28;;;;;;;4.73;2.13;;;20.10;72.60;;;;;;5113759;27;20931;-68
2022/05/03 12:20:57;;;;;;;3.30;1.83;;;20.20;71.00;;;;;;5121843;27;21046;-67
2022/05/03 12:23:41;;;;;;;4.70;2.13;;;20.10;70.90;;;;;;5113786;27;20431;-67
2022/05/03 12:26:16;;;;;;;3.73;1.77;;;20.10;71.50;;;;;;5089904;28;20428;-69
2022/05/03 12:28:46;;;;;;;4.10;1.60;;;20.10;71.90;;;;;;5112040;27;20425;-69
2022/05/03 12:31:14;;;;;;;2.90;1.70;;;20.00;72.30;;;;;;5113558;27;21083;-69
2022/05/03 12:33:42;;;;;;;9.30;2.10;;;20.00;69.10;;;;;;5110693;27;20433;-67
2022/05/03 12:36:08;;;;;;;3.07;1.60;;;20.10;70.50;;;;;;5105016;27;20439;-67
2022/05/03 12:38:47;;;;;;;6.20;1.80;;;20.20;69.00;;;;;;5097978;27;20441;-68
2022/05/03 12:41:25;;;;;;;3.07;1.93;;;20.10;70.50;;;;;;5105081;27;20460;-68
2022/05/03 12:44:12;;;;;;;4.40;2.50;;;20.20;72.30;;;;;;5101932;27;20501;-68
2022/05/03 12:46:38;;;;;;;19.63;1.97;;;20.00;70.10;;;;;;5111653;27;20453;-69
2022/05/03 12:49:06;;;;;;;3.93;1.93;;;19.90;73.60;;;;;;5111075;27;20432;-69
2022/05/03 12:51:32;;;;;;;8.43;2.40;;;19.90;71.40;;;;;;5112523;27;20531;-68
2022/05/03 12:54:05;;;;;;;4.23;2.20;;;20.00;70.90;;;;;;5106201;27;20588;-69
2022/05/03 12:59:16;;;;;;;5.00;1.83;;;19.70;73.00;;;;;;5105330;27;20464;-69
2022/05/03 13:01:44;;;;;;;3.60;1.57;;;19.60;73.60;;;;;;5101257;27;20840;-68
2022/05/03 13:04:10;;;;;;;6.43;2.30;;;19.60;73.70;;;;;;5106527;27;20449;-68
2022/05/03 13:06:36;;;;;;;3.60;1.93;;;19.30;73.20;;;;;;5102281;27;20461;-68
2022/05/03 13:09:03;;;;;;;3.40;1.87;;;19.10;74.80;;;;;;5103783;27;20421;-68
2022/05/03 13:11:30;;;;;;;3.10;2.03;;;19.00;73.90;;;;;;5104168;27;20436;-68
2022/05/03 13:13:55;;;;;;;3.43;1.90;;;19.00;76.60;;;;;;5112471;27;21064;-69
2022/05/03 13:16:21;;;;;;;2.37;1.50;;;18.80;74.70;;;;;;5102722;27;20437;-69
2022/05/03 13:18:47;;;;;;;3.23;1.30;;;18.60;74.40;;;;;;5107505;27;20699;-69
2022/05/03 13:21:12;;;;;;;3.70;2.10;;;18.50;75.90;;;;;;5104823;27;20185;-69
2022/05/03 13:23:38;;;;;;;4.43;1.93;;;18.50;80.50;;;;;;5104282;27;20215;-69
2022/05/03 13:26:04;;;;;;;6.23;2.10;;;18.20;84.60;;;;;;5107108;27;20198;-70
2022/05/03 13:28:29;;;;;;;5.20;2.17;;;17.90;86.90;;;;;;5119414;27;20484;-68
2022/05/03 13:30:56;;;;;;;14.93;2.50;;;17.70;85.80;;;;;;5083413;28;20189;-69
2022/05/03 13:33:21;;;;;;;13.13;2.43;;;17.40;88.00;;;;;;5107051;28;20194;-68
2022/05/03 13:41:16;;;;;;;4.97;2.47;;;16.30;91.70;;;;;;5112808;27;20470;-68